San Martin de la Vega, Spain
Current Conditions -  °F | °C
As of 8:00 AM on Saturday 25 Oct 2014 (Local Time) from LEGT Reporting Station
Clear Clear  
Wind Chill: 54°   Ceiling: Unl
Heat Index: 54°   Visibility: 6mi
Dew Point: 46°   Wind: 6mph
Humidity: 77%   Direction: 70°ENE
Pressure: 30.15"   Gusts: NA
Location:  40.21°N, 3.57°W
Report Text: LEGT 250600Z 07005KT CAVOK 12/08 Q1021
Loading
Personal Weather Stations






























Interactive Weather Map
Tropical Storm Tracking
New forecast layout! Learn more

10-Day Weather Forecast

Advertisements
Track Severe Weather on mobile